Time;durP1;ratioP1;P1;durP2;ratioP2;P2;SDS_P1;SDS_P2;PMS_P1;PMS_P2;Temp;Humidity;BMP_temperature;BMP_pressure;BME280_temperature;BME280_humidity;BME280_pressure;Samples;Min_cycle;Max_cycle;Signal;HPM_P1;HPM_P2
2022/07/25 00:01:19;;;;;;;3.30;2.70;;;;;;;15.08;64.59;96982.97;108350;1268;22539;-79
2022/07/25 00:04:00;;;;;;;2.70;1.80;;;;;;;15.10;64.60;96980.20;108393;1268;22552;-79
2022/07/25 00:06:32;;;;;;;1.90;1.30;;;;;;;15.09;64.33;96978.94;106704;1268;2044279;-79
2022/07/25 00:09:08;;;;;;;2.00;1.50;;;;;;;14.98;64.44;96982.35;108357;1270;25282;-79
2022/07/25 00:11:40;;;;;;;1.80;1.30;;;;;;;14.82;64.81;96984.84;108329;1269;24390;-79
2022/07/25 00:14:13;;;;;;;3.90;1.30;;;;;;;14.75;65.01;96978.35;108355;1268;22548;-79
2022/07/25 00:16:46;;;;;;;2.50;1.50;;;;;;;14.77;65.15;96978.75;108154;1268;178493;-79
2022/07/25 00:19:18;;;;;;;2.30;1.70;;;;;;;14.84;65.27;96977.23;108379;1268;24347;-79
2022/07/25 00:21:57;;;;;;;3.30;2.00;;;;;;;14.89;64.97;96973.88;108378;1268;22498;-79
2022/07/25 00:24:34;;;;;;;2.10;1.70;;;;;;;14.89;64.72;96974.52;108339;1268;22657;-79
2022/07/25 00:27:05;;;;;;;2.30;2.00;;;;;;;14.88;64.79;96974.23;108203;1268;76230;-79
2022/07/25 00:29:37;;;;;;;2.50;1.40;;;;;;;14.82;64.84;96974.92;108390;1268;24232;-79
2022/07/25 00:32:11;;;;;;;2.70;1.60;;;;;;;14.83;64.83;96973.23;108297;1268;22630;-78
2022/07/25 00:34:45;;;;;;;2.30;1.90;;;;;;;14.91;64.86;96974.48;108390;1268;22554;-79
2022/07/25 00:37:17;;;;;;;2.00;1.50;;;;;;;14.98;64.65;96969.13;108312;1268;27777;-79
2022/07/25 00:39:55;;;;;;;2.80;2.00;;;;;;;15.01;64.48;96972.42;108398;1268;23854;-79
2022/07/25 00:42:33;;;;;;;1.90;1.70;;;;;;;14.86;64.50;96973.13;108300;1268;22575;-79
2022/07/25 00:45:06;;;;;;;2.50;1.60;;;;;;;14.66;64.78;96976.55;108363;1268;24166;-79
2022/07/25 00:47:43;;;;;;;2.20;1.30;;;;;;;14.53;65.08;96978.83;108363;1267;23946;-79
2022/07/25 00:50:14;;;;;;;2.30;1.30;;;;;;;14.46;65.40;96975.95;108345;1268;24264;-79
2022/07/25 00:52:46;;;;;;;3.30;2.00;;;;;;;14.45;65.67;96975.69;108359;1268;24183;-78
2022/07/25 00:55:25;;;;;;;3.60;1.50;;;;;;;14.55;65.68;96973.98;108314;1268;40860;-78
2022/07/25 00:57:56;;;;;;;4.00;1.90;;;;;;;14.57;65.59;96967.77;108399;1268;22555;-78
2022/07/25 01:00:32;;;;;;;1.70;1.60;;;;;;;14.65;65.54;96962.97;108410;1268;22702;-78
2022/07/25 01:03:04;;;;;;;3.00;1.60;;;;;;;14.69;65.43;96961.45;108386;1268;22580;-78
2022/07/25 01:05:37;;;;;;;2.90;1.30;;;;;;;14.62;65.42;96956.02;108333;1268;35989;-78
2022/07/25 01:08:12;;;;;;;1.80;1.40;;;;;;;14.53;65.53;96959.73;108399;1268;25239;-78
2022/07/25 01:10:46;;;;;;;2.60;1.20;;;;;;;14.53;65.69;96959.66;108370;1268;22590;-78
2022/07/25 01:13:18;;;;;;;1.60;1.50;;;;;;;14.58;65.79;96960.20;108309;1268;24157;-79
2022/07/25 01:15:54;;;;;;;3.10;1.60;;;;;;;14.61;65.64;96957.09;108240;1268;46156;-78
2022/07/25 01:18:27;;;;;;;2.00;1.30;;;;;;;14.62;65.55;96952.93;108390;1268;22588;-79
2022/07/25 01:21:08;;;;;;;1.40;1.20;;;;;;;14.47;65.68;96954.33;108349;1268;22648;-79
2022/07/25 01:23:47;;;;;;;3.40;2.30;;;;;;;14.33;66.08;96958.75;108353;1268;22532;-79
2022/07/25 01:26:25;;;;;;;3.10;2.40;;;;;;;14.35;66.53;96959.31;108306;1268;42951;-80
2022/07/25 01:28:56;;;;;;;3.10;2.80;;;;;;;14.43;66.77;96957.05;108288;1268;22586;-80
2022/07/25 01:31:36;;;;;;;4.00;2.80;;;;;;;14.52;66.85;96954.19;108314;1268;22542;-80
2022/07/25 01:34:13;;;;;;;4.80;2.70;;;;;;;14.59;66.76;96954.31;108295;1268;22654;-79
2022/07/25 01:36:45;;;;;;;3.20;2.50;;;;;;;14.59;66.58;96953.63;108223;1268;55269;-79
2022/07/25 01:39:25;;;;;;;2.60;2.40;;;;;;;14.65;66.57;96952.67;108337;1267;24284;-79
2022/07/25 01:42:04;;;;;;;2.30;2.10;;;;;;;14.69;66.52;96951.95;108341;1268;22603;-79
2022/07/25 01:44:40;;;;;;;2.50;2.30;;;;;;;14.72;66.43;96944.96;108313;1268;22627;-79
2022/07/25 01:47:19;;;;;;;2.80;1.90;;;;;;;14.73;66.30;96946.58;108248;1268;34701;-80
2022/07/25 01:49:58;;;;;;;3.30;2.90;;;;;;;14.78;66.33;96939.89;108335;1268;22567;-79
2022/07/25 01:52:32;;;;;;;3.40;2.90;;;;;;;14.83;66.19;96938.29;108252;1271;22555;-79
2022/07/25 01:55:13;;;;;;;3.70;2.80;;;;;;;14.83;66.08;96937.97;108300;1270;24417;-79
2022/07/25 01:57:50;;;;;;;3.70;3.20;;;;;;;14.81;66.22;96935.98;108251;1270;23984;-79
2022/07/25 02:00:38;;;;;;;4.00;2.70;;;;;;;14.80;66.14;96933.92;108399;1268;24188;-79
2022/07/25 02:06:00;;;;;;;2.30;2.10;;;;;;;14.88;66.08;96931.77;102219;1268;5164197;-79
2022/07/25 02:08:37;;;;;;;2.50;2.20;;;;;;;14.90;65.96;96932.06;108372;1267;22657;-79
2022/07/25 02:11:12;;;;;;;4.60;2.40;;;;;;;14.89;65.89;96930.11;108349;1268;22528;-79
2022/07/25 02:13:49;;;;;;;3.10;2.70;;;;;;;14.88;66.06;96932.05;108307;1270;24231;-78
2022/07/25 02:16:20;;;;;;;6.70;2.90;;;;;;;14.90;65.92;96926.50;108189;1268;149545;-78
2022/07/25 02:18:56;;;;;;;3.20;2.70;;;;;;;14.93;65.96;96926.19;108443;1265;22566;-78
2022/07/25 02:21:29;;;;;;;3.70;2.70;;;;;;;14.90;65.82;96927.25;108370;1268;24239;-78
2022/07/25 02:24:00;;;;;;;3.00;2.40;;;;;;;14.86;65.88;96924.09;108452;1268;22550;-78
2022/07/25 02:26:38;;;;;;;2.90;2.40;;;;;;;14.90;65.91;96926.51;108285;1268;87370;-79
2022/07/25 02:29:09;;;;;;;3.90;2.90;;;;;;;14.94;65.96;96923.86;108412;1268;22676;-78
2022/07/25 02:31:48;;;;;;;6.60;2.90;;;;;;;14.99;65.98;96920.99;108425;1268;22716;-79
2022/07/25 02:34:19;;;;;;;5.40;3.10;;;;;;;15.01;65.94;96922.77;108338;1268;22628;-79
2022/07/25 02:36:56;;;;;;;3.20;2.80;;;;;;;14.96;65.97;96920.61;108087;1268;112039;-78
2022/07/25 02:39:31;;;;;;;5.30;3.20;;;;;;;14.94;66.04;96921.58;108203;1270;22825;-78
2022/07/25 02:42:08;;;;;;;3.20;2.80;;;;;;;14.88;66.03;96924.89;108375;1268;22581;-78
2022/07/25 02:44:39;;;;;;;4.00;2.70;;;;;;;14.80;66.09;96922.96;108322;1268;22553;-78
2022/07/25 02:47:18;;;;;;;3.40;2.60;;;;;;;14.80;66.14;96918.33;108176;1268;83023;-79
2022/07/25 02:49:54;;;;;;;4.10;2.90;;;;;;;14.83;66.24;96919.54;108329;1268;22695;-78
2022/07/25 02:52:26;;;;;;;3.70;2.70;;;;;;;14.83;66.07;96916.40;108335;1268;24266;-78
2022/07/25 02:55:03;;;;;;;3.00;2.70;;;;;;;14.82;66.12;96915.14;108281;1270;22945;-78
2022/07/25 02:57:37;;;;;;;3.10;2.80;;;;;;;14.84;66.23;96920.80;108322;1268;24405;-78
2022/07/25 03:00:14;;;;;;;4.50;3.20;;;;;;;14.84;66.17;96918.35;108314;1270;22569;-78
2022/07/25 03:02:46;;;;;;;3.00;2.70;;;;;;;14.80;66.11;96913.14;108408;1268;22543;-78
2022/07/25 03:05:22;;;;;;;3.90;2.70;;;;;;;14.79;66.19;96913.75;108129;1268;127547;-77
2022/07/25 03:08:14;;;;;;;4.70;2.60;;;;;;;14.76;66.37;96910.27;108380;1268;25283;-78
2022/07/25 03:10:50;;;;;;;4.00;3.00;;;;;;;14.75;66.39;96907.78;108400;1268;24457;-78
2022/07/25 03:13:21;;;;;;;3.50;3.10;;;;;;;14.76;66.51;96911.98;108407;1267;24345;-79
2022/07/25 03:15:59;;;;;;;3.50;2.90;;;;;;;14.76;66.60;96906.48;106991;1267;1790620;-78
2022/07/25 03:18:33;;;;;;;4.20;3.00;;;;;;;14.81;66.58;96913.23;108384;1268;22556;-78
2022/07/25 03:21:20;;;;;;;3.60;3.20;;;;;;;14.85;66.74;96912.45;108347;1268;22550;-79
2022/07/25 03:24:00;;;;;;;3.80;3.00;;;;;;;14.93;66.59;96913.91;108427;1268;25373;-79
2022/07/25 03:26:42;;;;;;;5.10;3.50;;;;;;;14.99;66.53;96913.14;108166;1267;99447;-78
2022/07/25 03:29:24;;;;;;;5.50;3.40;;;;;;;14.98;66.33;96918.60;108320;1268;22538;-79
2022/07/25 03:31:55;;;;;;;4.10;3.20;;;;;;;15.01;66.45;96922.80;108369;1268;22609;-79
2022/07/25 03:34:38;;;;;;;4.20;3.30;;;;;;;15.03;66.32;96926.08;108361;1268;22519;-79
2022/07/25 03:37:14;;;;;;;4.50;2.90;;;;;;;15.03;66.39;96926.83;106812;1268;1882202;-79
2022/07/25 03:39:49;;;;;;;3.80;3.10;;;;;;;14.98;66.45;96925.70;108414;1268;22566;-79
2022/07/25 03:42:26;;;;;;;5.30;3.10;;;;;;;14.97;66.57;96924.98;108402;1268;22569;-80
2022/07/25 03:45:02;;;;;;;5.00;3.20;;;;;;;15.01;66.65;96929.55;108305;1268;22752;-80
2022/07/25 03:47:34;;;;;;;4.00;3.20;;;;;;;15.06;66.64;96922.02;106454;1266;2556793;-79
2022/07/25 03:50:06;;;;;;;4.80;3.00;;;;;;;15.08;66.56;96926.77;108351;1268;22731;-79
2022/07/25 03:52:40;;;;;;;6.40;3.20;;;;;;;15.11;66.62;96920.58;108339;1268;22553;-77
2022/07/25 03:55:14;;;;;;;4.00;3.00;;;;;;;15.13;66.74;96920.20;108116;1268;96826;-78
2022/07/25 03:57:45;;;;;;;4.70;2.80;;;;;;;15.17;66.60;96918.84;108308;1268;22544;-78
2022/07/25 04:00:24;;;;;;;4.20;3.00;;;;;;;15.25;66.67;96922.70;108297;1268;22558;-78
2022/07/25 04:02:55;;;;;;;3.20;2.80;;;;;;;15.29;66.77;96922.69;108303;1268;22563;-79
2022/07/25 04:05:26;;;;;;;3.40;2.70;;;;;;;15.35;66.67;96923.42;108199;1268;106997;-78
2022/07/25 04:08:01;;;;;;;4.00;2.90;;;;;;;15.45;66.56;96920.48;108387;1268;22529;-79
2022/07/25 04:10:36;;;;;;;4.20;3.00;;;;;;;15.56;66.39;96921.11;108306;1268;22898;-79
2022/07/25 04:13:12;;;;;;;4.20;2.80;;;;;;;15.65;66.37;96921.34;108405;1268;22711;-79
2022/07/25 04:15:43;;;;;;;2.70;2.50;;;;;;;15.73;66.29;96921.23;108205;1266;108852;-79
2022/07/25 04:18:14;;;;;;;3.90;2.90;;;;;;;15.81;66.28;96919.85;108354;1268;22661;-79
2022/07/25 04:20:47;;;;;;;5.70;3.20;;;;;;;15.88;66.12;96914.42;108327;1269;22777;-79
2022/07/25 04:26:08;;;;;;;4.40;3.00;;;;;;;16.10;65.67;96917.66;108043;1268;156398;-79
2022/07/25 04:28:41;;;;;;;3.00;2.50;;;;;;;16.20;65.43;96917.42;108290;1268;22541;-79
2022/07/25 04:31:12;;;;;;;3.20;2.70;;;;;;;16.32;65.31;96918.90;108371;1267;22741;-78
2022/07/25 04:33:48;;;;;;;3.30;2.60;;;;;;;16.41;64.78;96915.30;108411;1267;25498;-78
2022/07/25 04:36:19;;;;;;;3.10;2.80;;;;;;;16.49;64.57;96915.18;107959;1268;234037;-78
2022/07/25 04:38:54;;;;;;;3.50;2.70;;;;;;;16.60;64.28;96913.42;108395;1268;24224;-78
2022/07/25 04:41:26;;;;;;;3.50;2.60;;;;;;;16.71;64.17;96913.39;108390;1267;22533;-78
2022/07/25 04:43:57;;;;;;;3.90;2.90;;;;;;;16.80;63.77;96910.70;108389;1265;23208;-78
2022/07/25 04:46:28;;;;;;;3.40;2.50;;;;;;;16.90;63.47;96909.49;108139;1268;84561;-78
2022/07/25 04:49:00;;;;;;;4.30;2.50;;;;;;;17.03;63.15;96907.89;108324;1268;22546;-80
2022/07/25 04:51:31;;;;;;;4.80;3.10;;;;;;;17.06;62.69;96901.38;108339;1268;22650;-78
2022/07/25 04:54:08;;;;;;;3.50;2.40;;;;;;;17.10;62.51;96901.34;108298;1268;22502;-79
2022/07/25 04:56:40;;;;;;;3.20;2.90;;;;;;;17.23;62.31;96900.08;108211;1267;71729;-78
2022/07/25 04:59:13;;;;;;;4.20;2.80;;;;;;;17.41;62.03;96896.69;108249;1270;22550;-79
2022/07/25 05:01:47;;;;;;;3.80;3.10;;;;;;;17.72;62.05;96894.70;108240;1270;22538;-79
2022/07/25 05:04:18;;;;;;;4.30;3.10;;;;;;;18.20;61.57;96888.41;108332;1268;22539;-79
2022/07/25 05:06:50;;;;;;;3.50;2.80;;;;;;;19.72;60.27;96882.27;108050;1270;107205;-80
2022/07/25 05:09:21;;;;;;;4.20;2.80;;;;;;;21.82;56.59;96886.59;108302;1270;22765;-79
2022/07/25 05:11:56;;;;;;;3.20;2.80;;;;;;;23.44;52.18;96880.33;108330;1270;22588;-80
2022/07/25 05:14:27;;;;;;;2.90;2.50;;;;;;;24.68;49.99;96873.42;108308;1270;25472;-79
2022/07/25 05:16:59;;;;;;;2.40;2.20;;;;;;;26.10;48.15;96874.65;108206;1268;74764;-81
2022/07/25 05:19:36;;;;;;;5.00;2.40;;;;;;;27.53;44.59;96881.85;108351;1268;25928;-80
2022/07/25 05:22:08;;;;;;;3.80;2.20;;;;;;;28.05;42.36;96868.13;108370;1268;22519;-80
2022/07/25 05:24:39;;;;;;;2.60;2.10;;;;;;;28.46;40.34;96869.00;108344;1268;22689;-80
2022/07/25 05:27:13;;;;;;;2.20;2.00;;;;;;;28.74;38.82;96866.04;108191;1268;114232;-80
2022/07/25 05:29:48;;;;;;;2.10;2.00;;;;;;;29.14;38.35;96862.04;108378;1267;22678;-80
2022/07/25 05:32:21;;;;;;;4.20;2.20;;;;;;;28.99;36.42;96857.94;108329;1267;24265;-81
2022/07/25 05:34:55;;;;;;;2.50;2.20;;;;;;;28.93;35.81;96858.88;108373;1267;22605;-81
2022/07/25 05:37:26;;;;;;;2.70;2.10;;;;;;;29.04;36.26;96856.68;108220;1268;76167;-80
2022/07/25 05:39:57;;;;;;;2.60;2.30;;;;;;;29.55;36.98;96853.10;108361;1268;22533;-80
2022/07/25 05:42:35;;;;;;;3.60;2.10;;;;;;;30.70;36.14;96854.88;108393;1268;22635;-80
2022/07/25 05:45:12;;;;;;;3.50;2.10;;;;;;;30.90;34.91;96849.94;108320;1268;22599;-81
2022/07/25 05:47:44;;;;;;;2.80;2.20;;;;;;;30.66;34.36;96846.16;108377;1268;22650;-81
2022/07/25 05:50:20;;;;;;;4.00;2.10;;;;;;;30.25;34.14;96852.15;108344;1268;22806;-80
2022/07/25 05:52:58;;;;;;;2.70;2.20;;;;;;;30.23;34.19;96856.54;108354;1268;22531;-82
2022/07/25 05:55:32;;;;;;;3.20;2.10;;;;;;;31.05;34.73;96861.84;108173;1268;92883;-80
2022/07/25 05:58:04;;;;;;;2.10;1.90;;;;;;;31.85;33.67;96862.54;108333;1268;22538;-81
2022/07/25 06:00:41;;;;;;;2.80;1.80;;;;;;;32.93;32.73;96858.11;108363;1267;24454;-81
2022/07/25 06:03:16;;;;;;;2.40;2.20;;;;;;;33.85;31.50;96865.52;108351;1268;22657;-81
2022/07/25 06:05:49;;;;;;;2.60;2.10;;;;;;;33.82;30.07;96860.44;106236;1267;2649338;-82
2022/07/25 06:08:21;;;;;;;2.30;2.10;;;;;;;33.49;30.06;96863.40;108381;1268;22530;-81
2022/07/25 06:10:52;;;;;;;1.90;1.70;;;;;;;33.41;30.62;96863.54;108383;1268;22526;-82
2022/07/25 06:13:26;;;;;;;2.20;1.80;;;;;;;34.43;29.78;96861.73;108389;1268;22529;-82
2022/07/25 06:16:01;;;;;;;2.10;1.60;;;;;;;35.04;29.65;96866.84;106684;1268;2071520;-81
2022/07/25 06:18:32;;;;;;;3.90;2.00;;;;;;;36.18;29.52;96862.40;108396;1267;22519;-82
2022/07/25 06:21:07;;;;;;;4.10;2.00;;;;;;;37.77;28.80;96860.56;108357;1268;25251;-80
2022/07/25 06:23:38;;;;;;;4.20;1.70;;;;;;;39.48;27.72;96855.98;108360;1268;24377;-82
2022/07/25 06:26:16;;;;;;;4.30;2.20;;;;;;;40.25;26.01;96859.47;106906;1268;1828336;-82
2022/07/25 06:28:50;;;;;;;2.30;1.90;;;;;;;40.21;25.20;96851.32;108396;1267;22660;-83
2022/07/25 06:31:21;;;;;;;2.10;1.90;;;;;;;39.89;24.47;96844.63;108358;1268;22464;-80
2022/07/25 06:33:52;;;;;;;2.40;1.70;;;;;;;40.00;24.24;96843.89;108373;1267;22549;-80
2022/07/25 06:36:27;;;;;;;1.70;1.60;;;;;;;40.03;23.65;96848.05;108077;1268;156799;-81
2022/07/25 06:38:58;;;;;;;2.60;1.80;;;;;;;39.74;23.78;96840.49;108400;1268;22603;-80
2022/07/25 06:41:32;;;;;;;2.10;1.70;;;;;;;40.38;23.67;96844.23;108393;1268;22565;-80
2022/07/25 06:44:03;;;;;;;1.90;1.60;;;;;;;41.17;23.66;96839.45;108426;1267;24396;-80
2022/07/25 06:46:34;;;;;;;1.70;1.60;;;;;;;42.15;22.93;96838.48;108172;1268;105771;-81
2022/07/25 06:49:06;;;;;;;3.70;1.50;;;;;;;42.35;22.31;96838.84;108413;1268;23306;-80
2022/07/25 06:51:38;;;;;;;1.70;1.40;;;;;;;43.07;22.05;96837.04;108348;1268;22526;-80
2022/07/25 06:54:09;;;;;;;1.30;1.20;;;;;;;43.73;21.64;96837.33;108404;1267;22522;-80
2022/07/25 06:56:42;;;;;;;2.70;1.30;;;;;;;43.85;21.10;96832.59;108242;1268;94498;-79
2022/07/25 06:59:14;;;;;;;2.70;1.30;;;;;;;44.21;20.51;96831.55;108365;1267;23736;-80
2022/07/25 07:01:45;;;;;;;1.70;1.50;;;;;;;43.02;19.22;96830.13;108358;1268;22626;-80
2022/07/25 07:04:16;;;;;;;2.30;1.40;;;;;;;41.48;19.81;96823.86;108378;1268;25461;-80
2022/07/25 07:06:50;;;;;;;1.80;1.10;;;;;;;40.95;20.30;96824.67;108204;1268;109388;-80
2022/07/25 07:09:22;;;;;;;3.30;1.30;;;;;;;41.03;20.16;96825.02;108448;1268;25466;-79
2022/07/25 07:11:53;;;;;;;3.30;1.10;;;;;;;41.59;20.60;96816.86;108353;1268;24187;-79
2022/07/25 07:14:24;;;;;;;1.60;1.10;;;;;;;43.68;20.28;96817.90;108433;1267;22984;-79
2022/07/25 07:16:56;;;;;;;1.40;1.10;;;;;;;44.41;17.43;96822.59;104537;1268;4929598;-80
2022/07/25 07:19:27;;;;;;;1.00;0.80;;;;;;;43.62;17.15;96816.52;108384;1268;22723;-82
2022/07/25 07:21:58;;;;;;;1.00;0.90;;;;;;;42.69;16.49;96816.61;108267;1270;22565;-81
2022/07/25 07:24:29;;;;;;;1.30;0.80;;;;;;;41.88;17.33;96810.50;108393;1268;22527;-81
2022/07/25 07:27:00;;;;;;;1.80;0.90;;;;;;;42.03;17.17;96812.70;106852;1268;1814104;-80
2022/07/25 07:29:32;;;;;;;1.20;1.00;;;;;;;42.45;17.86;96805.73;108364;1268;22768;-79
2022/07/25 07:32:04;;;;;;;2.00;0.80;;;;;;;43.43;17.59;96803.21;108378;1268;23204;-79
2022/07/25 07:34:43;;;;;;;1.20;0.90;;;;;;;44.11;17.11;96808.09;108221;1270;23841;-83
2022/07/25 07:37:23;;;;;;;1.20;1.00;;;;;;;44.93;16.78;96805.67;106029;1268;2268758;-82
2022/07/25 07:40:02;;;;;;;2.50;1.10;;;;;;;45.76;16.56;96805.80;108277;1268;22702;-82
2022/07/25 07:42:45;;;;;;;2.30;0.90;;;;;;;45.52;15.25;96801.68;108277;1268;24239;-82
2022/07/25 07:45:23;;;;;;;1.60;1.00;;;;;;;43.94;15.82;96799.84;108153;1268;142268;-84
2022/07/25 07:48:05;;;;;;;1.90;1.00;;;;;;;42.85;16.27;96795.21;108279;1268;25402;-85
2022/07/25 07:50:39;;;;;;;1.20;1.00;;;;;;;42.60;16.53;96789.52;108351;1268;22554;-82
2022/07/25 07:53:18;;;;;;;2.20;1.00;;;;;;;42.66;16.83;96784.91;108303;1267;22569;-83
2022/07/25 07:55:55;;;;;;;1.10;1.00;;;;;;;44.51;17.26;96791.70;108003;1268;131917;-85
2022/07/25 07:58:28;;;;;;;1.20;1.10;;;;;;;46.38;16.62;96786.93;108201;1270;22568;-83
2022/07/25 08:01:14;;;;;;;2.70;1.30;;;;;;;46.67;15.85;96784.54;108243;1270;22775;-82
2022/07/25 08:03:47;;;;;;;1.30;1.20;;;;;;;46.20;15.21;96786.69;108187;1270;22527;-82
2022/07/25 08:06:22;;;;;;;1.20;1.10;;;;;;;45.21;15.46;96788.26;107950;1270;147235;-83
2022/07/25 08:09:01;;;;;;;1.40;1.20;;;;;;;45.28;15.32;96786.70;108024;1273;22573;-82
2022/07/25 08:11:40;;;;;;;1.30;1.20;;;;;;;44.40;15.86;96791.22;108048;1273;22556;-85
2022/07/25 08:14:35;;;;;;;1.20;1.10;;;;;;;46.32;15.76;96783.17;108045;1273;22542;-85
2022/07/25 08:17:06;;;;;;;2.00;1.50;;;;;;;46.25;14.56;96779.58;107783;1271;115156;-86
2022/07/25 08:19:43;;;;;;;1.60;1.40;;;;;;;46.13;15.75;96774.52;108103;1271;22563;-85
2022/07/25 08:22:14;;;;;;;1.60;1.30;;;;;;;46.95;15.20;96775.34;108076;1271;22576;-85
2022/07/25 08:24:45;;;;;;;1.30;1.20;;;;;;;46.47;14.59;96775.58;108011;1271;22965;-86
2022/07/25 08:27:23;;;;;;;1.50;1.40;;;;;;;46.45;15.17;96779.60;107954;1268;119465;-85
2022/07/25 08:30:00;;;;;;;2.70;1.40;;;;;;;46.53;14.76;96776.84;108261;1265;25299;-85
2022/07/25 08:32:46;;;;;;;1.60;1.10;;;;;;;46.39;14.91;96778.60;108263;1268;22583;-82
2022/07/25 08:35:21;;;;;;;2.70;1.10;;;;;;;46.10;15.20;96777.74;108049;1268;158524;-82
2022/07/25 08:38:00;;;;;;;;;;;;;;;45.89;15.67;96777.55;108396;1267;23389;-84
2022/07/25 08:40:37;;;;;;;1.70;1.20;;;;;;;45.03;15.70;96777.76;108289;1268;24241;-85
2022/07/25 08:43:17;;;;;;;2.30;1.20;;;;;;;45.15;16.15;96776.89;108332;1267;22659;-83
2022/07/25 08:45:57;;;;;;;1.70;1.30;;;;;;;45.04;14.90;96773.61;108061;1267;138202;-83
2022/07/25 08:48:31;;;;;;;;;;;;;;;43.91;15.61;96771.02;108330;1269;22509;-85
2022/07/25 08:51:04;;;;;;;1.40;1.30;;;;;;;42.26;15.79;96770.67;108338;1270;22914;-85
2022/07/25 08:53:41;;;;;;;1.10;1.10;;;;;;;41.15;16.65;96761.73;108209;1270;22533;-84
2022/07/25 08:56:12;;;;;;;1.50;1.40;;;;;;;41.57;16.88;96760.81;108194;1268;76169;-84
2022/07/25 08:58:46;;;;;;;1.90;1.20;;;;;;;42.95;17.06;96761.89;108366;1268;25367;-84
2022/07/25 09:01:17;;;;;;;2.90;1.20;;;;;;;43.81;16.68;96763.15;108299;1268;22559;-84
2022/07/25 09:03:48;;;;;;;1.60;1.00;;;;;;;43.75;15.93;96761.84;108386;1268;22538;-83
2022/07/25 09:06:24;;;;;;;3.30;1.40;;;;;;;43.22;15.99;96764.30;108166;1268;77861;-84
2022/07/25 09:08:58;;;;;;;1.30;1.20;;;;;;;40.57;16.60;96759.58;108408;1268;22546;-85
2022/07/25 09:11:31;;;;;;;2.00;1.30;;;;;;;38.43;18.75;96751.41;108372;1268;22627;-84
2022/07/25 09:14:05;;;;;;;1.40;1.30;;;;;;;36.86;19.77;96751.10;108396;1267;22561;-84
2022/07/25 09:16:38;;;;;;;4.10;1.40;;;;;;;35.04;21.19;96751.52;108227;1268;70196;-82
2022/07/25 09:19:12;;;;;;;1.90;1.30;;;;;;;33.24;23.38;96748.95;108434;1268;22554;-81
2022/07/25 09:21:58;;;;;;;2.30;1.20;;;;;;;32.55;24.80;96749.02;108436;1268;22539;-80
2022/07/25 09:24:31;;;;;;;2.90;1.50;;;;;;;32.16;25.24;96744.64;108409;1265;22552;-81
2022/07/25 09:27:09;;;;;;;2.70;1.60;;;;;;;31.16;26.24;96747.08;108238;1268;76839;-82
2022/07/25 09:29:42;;;;;;;1.80;1.50;;;;;;;30.04;28.34;96745.02;108344;1270;22631;-81
2022/07/25 09:32:19;;;;;;;1.70;1.30;;;;;;;29.38;29.18;96743.76;108392;1268;22648;-82
2022/07/25 09:34:54;;;;;;;1.60;1.40;;;;;;;28.98;29.98;96739.09;108337;1270;22525;-82
2022/07/25 09:37:30;;;;;;;3.00;1.80;;;;;;;28.92;30.98;96741.98;108148;1270;96587;-83
2022/07/25 09:40:15;;;;;;;1.60;1.50;;;;;;;29.08;30.53;96744.73;108352;1268;22568;-83
2022/07/25 09:42:52;;;;;;;2.90;1.60;;;;;;;28.58;30.79;96739.23;108375;1270;22547;-82
2022/07/25 09:45:23;;;;;;;2.00;1.40;;;;;;;28.44;31.16;96733.95;108249;1268;85083;-79
2022/07/25 09:47:56;;;;;;;2.00;1.30;;;;;;;28.45;32.07;96734.52;108305;1269;22555;-79
2022/07/25 09:50:30;;;;;;;1.60;1.20;;;;;;;28.32;32.06;96730.15;108398;1269;22561;-80
2022/07/25 09:53:03;;;;;;;2.20;1.20;;;;;;;28.21;31.27;96732.86;108308;1270;22543;-80
2022/07/25 09:55:35;;;;;;;1.50;1.30;;;;;;;28.41;31.43;96728.89;108265;1268;33472;-79
2022/07/25 09:58:06;;;;;;;2.50;1.90;;;;;;;28.67;31.01;96725.88;108350;1268;22538;-80
2022/07/25 10:00:40;;;;;;;1.80;1.30;;;;;;;28.64;31.40;96726.98;108363;1268;22542;-79
2022/07/25 10:03:33;;;;;;;2.00;1.60;;;;;;;28.19;31.64;96725.38;108371;1268;22548;-80
2022/07/25 10:06:15;;;;;;;2.40;1.60;;;;;;;28.18;32.33;96722.58;108270;1268;30581;-79
2022/07/25 10:08:47;;;;;;;2.50;1.80;;;;;;;28.47;32.93;96721.64;107967;1269;444324;-80
2022/07/25 10:11:24;;;;;;;3.00;1.50;;;;;;;28.56;33.44;96717.73;108274;1270;22631;-80
2022/07/25 10:14:09;;;;;;;3.70;1.60;;;;;;;28.86;33.38;96713.68;108276;1268;22608;-80
2022/07/25 10:16:48;;;;;;;2.80;1.70;;;;;;;29.12;32.98;96708.60;108298;1268;27637;-80
2022/07/25 10:19:41;;;;;;;2.60;1.40;;;;;;;29.15;32.27;96704.45;108390;1268;25119;-81
2022/07/25 10:22:13;;;;;;;2.80;1.60;;;;;;;29.13;32.67;96700.27;108338;1268;25352;-80
2022/07/25 10:24:50;;;;;;;2.40;1.60;;;;;;;29.22;33.30;96701.39;108361;1268;22553;-81
2022/07/25 10:27:49;;;;;;;1.90;1.50;;;;;;;29.43;33.49;96696.76;108339;1268;35850;-82
2022/07/25 10:30:26;;;;;;;2.10;1.50;;;;;;;29.74;33.17;96694.39;108291;1270;22541;-83
2022/07/25 10:33:05;;;;;;;2.20;1.60;;;;;;;29.57;32.51;96695.52;108242;1270;22814;-82
2022/07/25 10:35:38;;;;;;;2.10;1.50;;;;;;;28.85;32.86;96688.89;108008;1267;130290;-82
2022/07/25 10:38:11;;;;;;;2.80;2.00;;;;;;;28.69;32.98;96684.57;108356;1268;23131;-82
2022/07/25 10:41:02;;;;;;;2.10;1.70;;;;;;;28.32;32.92;96686.29;108298;1269;24009;-82
2022/07/25 10:43:50;;;;;;;1.90;1.70;;;;;;;27.85;33.36;96682.55;108334;1268;23731;-82
2022/07/25 10:46:22;;;;;;;2.30;1.50;;;;;;;27.82;33.47;96679.21;108157;1268;111777;-82
2022/07/25 10:49:03;;;;;;;2.00;1.30;;;;;;;28.02;34.00;96680.45;108357;1270;23345;-81
2022/07/25 10:51:52;;;;;;;1.60;1.40;;;;;;;27.94;33.39;96678.35;108324;1269;22721;-81
2022/07/25 10:54:31;;;;;;;1.30;1.20;;;;;;;27.93;34.23;96672.90;108383;1268;25378;-82
2022/07/25 10:57:14;;;;;;;3.30;1.90;;;;;;;28.25;34.28;96673.12;108116;1270;99404;-82
2022/07/25 10:59:46;;;;;;;1.50;1.40;;;;;;;28.12;34.40;96669.77;108388;1269;24374;-82
2022/07/25 11:02:18;;;;;;;1.50;1.40;;;;;;;27.80;34.76;96667.45;108399;1268;22905;-83
2022/07/25 11:05:01;;;;;;;3.10;1.80;;;;;;;27.61;34.67;96664.54;108405;1268;24209;-82
2022/07/25 11:07:36;;;;;;;2.40;1.80;;;;;;;27.69;34.80;96660.52;108139;1270;119717;-83
2022/07/25 11:10:09;;;;;;;2.10;1.40;;;;;;;27.77;35.63;96656.40;108445;1268;24317;-82
2022/07/25 11:12:44;;;;;;;2.70;1.60;;;;;;;28.11;35.94;96651.48;108426;1270;22818;-81
2022/07/25 11:15:16;;;;;;;2.20;1.60;;;;;;;28.37;35.57;96653.55;106130;1268;1601635;-82
2022/07/25 11:17:55;;;;;;;3.60;2.10;;;;;;;28.58;35.74;96650.39;108354;1268;22532;-82
2022/07/25 11:20:27;;;;;;;3.00;1.90;;;;;;;28.68;34.41;96647.78;108372;1270;22475;-82
2022/07/25 11:22:58;;;;;;;2.10;1.70;;;;;;;28.47;34.93;96642.16;108394;1270;22614;-82
2022/07/25 11:25:29;;;;;;;1.70;1.40;;;;;;;28.64;34.78;96639.06;106470;1270;2143298;-82
2022/07/25 11:28:04;;;;;;;2.90;2.00;;;;;;;28.79;33.79;96635.50;108372;1268;22594;-81
2022/07/25 11:30:39;;;;;;;2.20;1.40;;;;;;;28.85;34.28;96635.09;108520;1268;22712;-81
2022/07/25 11:33:14;;;;;;;3.40;1.80;;;;;;;28.67;33.50;96636.62;108415;1270;22533;-82
2022/07/25 11:35:49;;;;;;;2.40;1.80;;;;;;;28.17;34.32;96631.14;108231;1270;144094;-82
2022/07/25 11:38:23;;;;;;;1.80;1.50;;;;;;;28.20;34.66;96626.38;108444;1268;22569;-82
2022/07/25 11:40:57;;;;;;;1.60;1.50;;;;;;;28.14;35.31;96625.77;108409;1265;22553;-82
2022/07/25 11:43:34;;;;;;;2.30;1.50;;;;;;;28.28;35.37;96627.40;108372;1270;22656;-82
2022/07/25 11:46:13;;;;;;;4.10;1.80;;;;;;;28.40;35.16;96622.94;108164;1268;115421;-82
2022/07/25 11:48:47;;;;;;;2.10;1.50;;;;;;;28.58;35.20;96614.92;108365;1270;25378;-81
2022/07/25 11:51:24;;;;;;;2.40;1.60;;;;;;;28.71;34.62;96615.89;108382;1268;22562;-81
2022/07/25 11:53:59;;;;;;;2.30;1.90;;;;;;;28.33;34.00;96617.02;108424;1268;22833;-80
2022/07/25 11:56:43;;;;;;;2.80;1.70;;;;;;;28.08;35.26;96604.90;108095;1270;104045;-80
2022/07/25 11:59:21;;;;;;;5.60;1.80;;;;;;;28.29;35.97;96603.24;108365;1268;22715;-81
2022/07/25 12:01:54;;;;;;;2.40;2.00;;;;;;;28.50;36.66;96602.40;108401;1268;22778;-81
2022/07/25 12:04:26;;;;;;;2.10;1.80;;;;;;;28.71;35.64;96604.20;108362;1270;22557;-82
2022/07/25 12:07:06;;;;;;;2.20;1.80;;;;;;;28.70;35.25;96599.52;108124;1270;109427;-82